createdAt,value
2024-02-12T00:01:01.850Z,4.90
2024-02-12T00:01:59.358Z,4.91
2024-02-12T00:02:43.622Z,4.92
2024-02-12T00:03:48.186Z,4.89
2024-02-12T00:04:22.110Z,4.89
2024-02-12T00:05:03.524Z,4.91
2024-02-12T00:05:50.686Z,4.89
2024-02-12T00:06:23.377Z,4.85
2024-02-12T00:07:14.821Z,4.86
2024-02-12T00:08:25.807Z,4.86
2024-02-12T00:09:12.801Z,4.86
2024-02-12T00:10:07.064Z,4.88
2024-02-12T00:10:44.468Z,4.89
2024-02-12T00:12:22.804Z,4.93
2024-02-12T00:12:58.517Z,4.92
2024-02-12T00:14:06.208Z,5.03
2024-02-12T00:14:50.257Z,5.00
2024-02-12T00:15:25.104Z,4.96
2024-02-12T00:16:09.740Z,4.97
2024-02-12T00:16:48.552Z,4.95
2024-02-12T00:17:41.653Z,4.96
2024-02-12T00:18:33.969Z,4.90
2024-02-12T00:19:06.737Z,4.93
2024-02-12T00:19:43.220Z,4.94
2024-02-12T00:20:19.112Z,4.95
2024-02-12T00:20:58.237Z,4.97
2024-02-12T00:21:39.584Z,4.98
2024-02-12T00:22:16.531Z,4.97
2024-02-12T00:23:03.596Z,4.97
2024-02-12T00:23:45.498Z,4.98
2024-02-12T00:24:33.820Z,4.96
2024-02-12T00:25:27.357Z,4.94
2024-02-12T00:26:23.875Z,4.91
2024-02-12T00:27:11.244Z,4.93
2024-02-12T00:27:51.552Z,4.96
2024-02-12T00:28:56.032Z,4.97
2024-02-12T00:30:45.010Z,4.95
2024-02-12T00:31:22.937Z,4.92
2024-02-12T00:32:31.418Z,4.92
2024-02-12T00:33:08.563Z,4.93
2024-02-12T00:34:14.235Z,4.93
2024-02-12T00:35:02.282Z,4.93
2024-02-12T00:35:49.598Z,4.94
2024-02-12T00:36:34.291Z,4.94
2024-02-12T00:37:11.777Z,4.96
2024-02-12T00:38:20.735Z,4.99
2024-02-12T00:38:55.967Z,4.97
2024-02-12T00:39:40.656Z,5.00
2024-02-12T00:40:15.455Z,5.00
2024-02-12T00:40:48.001Z,5.02
2024-02-12T00:41:35.115Z,5.05
2024-02-12T00:42:13.901Z,5.06
2024-02-12T00:43:02.802Z,5.09
2024-02-12T00:43:49.624Z,5.09
2024-02-12T00:44:43.013Z,5.10
2024-02-12T00:45:29.098Z,5.11
2024-02-12T00:46:22.348Z,5.09
2024-02-12T00:48:22.821Z,5.05
2024-02-12T00:49:19.267Z,5.04
2024-02-12T00:49:57.514Z,5.03
2024-02-12T00:50:53.534Z,5.03
2024-02-12T00:51:53.554Z,5.02
2024-02-12T00:52:56.988Z,5.00
2024-02-12T00:53:51.403Z,4.95
2024-02-12T00:54:42.721Z,4.96
2024-02-12T00:55:32.422Z,4.94
2024-02-12T00:56:14.170Z,4.93
2024-02-12T00:57:01.908Z,4.95
2024-02-12T00:57:48.560Z,4.93
2024-02-12T00:58:27.525Z,4.95
2024-02-12T00:59:12.197Z,4.96
2024-02-12T00:59:51.521Z,4.97
2024-02-12T01:00:35.803Z,5.00
2024-02-12T01:01:17.632Z,5.01
2024-02-12T01:02:05.709Z,5.02
2024-02-12T01:03:19.749Z,5.02
2024-02-12T01:04:16.503Z,4.96
2024-02-12T01:04:57.894Z,4.98
2024-02-12T01:05:57.929Z,5.00
2024-02-12T01:06:50.113Z,5.00
2024-02-12T01:07:40.141Z,5.00
2024-02-12T01:08:30.843Z,5.03
2024-02-12T01:09:39.222Z,5.01
2024-02-12T01:10:32.233Z,5.01
2024-02-12T01:11:22.480Z,5.00
2024-02-12T01:12:19.450Z,4.99
2024-02-12T01:12:59.314Z,4.99
2024-02-12T01:13:34.895Z,4.98
2024-02-12T01:14:10.641Z,5.06
2024-02-12T01:15:19.933Z,5.02
2024-02-12T01:16:14.352Z,5.00
2024-02-12T01:16:59.349Z,5.00
2024-02-12T01:17:53.628Z,5.03
2024-02-12T01:18:47.048Z,5.02
2024-02-12T01:19:27.562Z,5.07
2024-02-12T01:20:13.354Z,5.05
2024-02-12T01:22:16.329Z,5.02
2024-02-12T01:22:55.469Z,5.01
2024-02-12T01:23:36.367Z,5.02
2024-02-12T01:24:29.538Z,5.03
2024-02-12T01:25:12.203Z,5.03
2024-02-12T01:25:54.067Z,5.10
2024-02-12T01:26:44.106Z,5.03
2024-02-12T01:27:37.597Z,5.04
2024-02-12T01:28:13.194Z,5.04
2024-02-12T01:29:06.806Z,5.04
2024-02-12T01:29:54.376Z,5.04
2024-02-12T01:30:43.871Z,5.09
2024-02-12T01:31:46.156Z,5.04
2024-02-12T01:32:21.193Z,4.99
2024-02-12T01:33:17.470Z,5.01
2024-02-12T01:34:23.390Z,4.99
2024-02-12T01:35:07.580Z,4.99
2024-02-12T01:35:58.826Z,4.95
2024-02-12T01:36:54.238Z,4.97
2024-02-12T01:37:56.175Z,4.96
2024-02-12T01:38:35.168Z,4.96
2024-02-12T01:39:31.568Z,4.98
2024-02-12T01:40:21.134Z,4.99
2024-02-12T01:41:04.999Z,5.00
2024-02-12T01:41:43.219Z,5.03
2024-02-12T01:42:22.191Z,5.03
2024-02-12T01:43:23.521Z,5.05
2024-02-12T01:44:19.168Z,5.02
2024-02-12T01:45:19.046Z,5.01
2024-02-12T01:46:21.461Z,4.99
2024-02-12T01:47:21.337Z,4.97
2024-02-12T01:48:00.056Z,4.97
2024-02-12T01:48:53.063Z,4.99
2024-02-12T01:49:52.557Z,4.99
2024-02-12T01:50:39.753Z,5.00
2024-02-12T01:51:27.077Z,5.00
2024-02-12T01:52:11.604Z,5.01
2024-02-12T01:53:05.827Z,5.00
2024-02-12T01:53:55.859Z,5.00
2024-02-12T01:54:52.746Z,4.99
2024-02-12T01:56:37.222Z,4.98
2024-02-12T01:57:24.864Z,4.97
2024-02-12T01:58:09.434Z,4.99
2024-02-12T01:59:11.501Z,4.96
2024-02-12T01:59:56.210Z,4.96
2024-02-12T02:00:37.407Z,4.97
2024-02-12T02:01:20.088Z,4.98
2024-02-12T02:01:55.563Z,5.00
2024-02-12T02:02:46.913Z,5.02
2024-02-12T02:03:25.756Z,5.02
2024-02-12T02:04:16.520Z,5.03
2024-02-12T02:05:05.953Z,5.02
2024-02-12T02:05:57.487Z,5.02
2024-02-12T02:07:00.501Z,5.04
2024-02-12T02:07:54.657Z,5.06
2024-02-12T02:08:38.633Z,5.04
2024-02-12T02:09:13.625Z,5.05
2024-02-12T02:09:46.073Z,5.08
2024-02-12T02:10:30.475Z,5.11
2024-02-12T02:11:19.143Z,5.14
2024-02-12T02:12:09.549Z,5.13
2024-02-12T02:12:58.356Z,5.14
2024-02-12T02:13:58.018Z,5.14
2024-02-12T02:14:50.392Z,5.13
2024-02-12T02:15:46.517Z,5.12
2024-02-12T02:16:36.947Z,5.11
2024-02-12T02:17:15.232Z,5.12
2024-02-12T02:17:56.533Z,5.13
2024-02-12T02:18:47.076Z,5.16
2024-02-12T02:19:37.477Z,5.13
2024-02-12T02:20:16.706Z,5.14
2024-02-12T02:20:52.165Z,5.11
2024-02-12T02:21:35.594Z,5.13
2024-02-12T02:22:21.495Z,5.13
2024-02-12T02:23:05.479Z,5.14
2024-02-12T02:24:08.803Z,5.13
2024-02-12T02:24:57.906Z,5.16
2024-02-12T02:25:45.413Z,5.17
2024-02-12T02:26:27.774Z,5.19
2024-02-12T02:27:03.119Z,5.21
2024-02-12T02:27:50.455Z,5.22
2024-02-12T02:28:41.884Z,5.24
2024-02-12T02:29:36.259Z,5.23
2024-02-12T02:30:13.279Z,5.23
2024-02-12T02:30:49.915Z,5.26
2024-02-12T02:31:35.195Z,5.27
2024-02-12T02:33:37.296Z,5.27
2024-02-12T02:35:24.716Z,5.30
2024-02-12T02:36:04.006Z,5.25
2024-02-12T02:36:50.053Z,5.25
2024-02-12T02:37:43.837Z,5.24
2024-02-12T02:38:35.686Z,5.24
2024-02-12T02:39:31.569Z,5.23
2024-02-12T02:40:19.439Z,5.22
2024-02-12T02:41:12.746Z,5.23
2024-02-12T02:42:01.415Z,5.23
2024-02-12T02:42:36.701Z,5.26
2024-02-12T02:43:20.259Z,5.28
2024-02-12T02:43:55.512Z,5.29
2024-02-12T02:44:34.048Z,5.33
2024-02-12T02:45:15.931Z,5.32
2024-02-12T02:46:12.264Z,5.35
2024-02-12T02:46:48.219Z,5.35
2024-02-12T02:47:30.160Z,5.37
2024-02-12T02:48:09.562Z,5.37
2024-02-12T02:48:56.210Z,5.38
2024-02-12T02:49:41.836Z,5.37
2024-02-12T02:50:31.131Z,5.38
2024-02-12T02:51:24.591Z,5.39
2024-02-12T02:52:01.512Z,5.34
2024-02-12T02:52:42.224Z,5.36
2024-02-12T02:53:26.932Z,5.35
2024-02-12T02:54:18.133Z,5.34
2024-02-12T02:55:04.858Z,5.35
2024-02-12T02:56:08.736Z,5.31
2024-02-12T02:56:55.606Z,5.31
2024-02-12T02:59:17.893Z,5.31
2024-02-12T03:01:06.973Z,5.30
2024-02-12T03:01:39.540Z,5.31
2024-02-12T03:02:30.945Z,5.35
2024-02-12T03:03:17.774Z,5.36
2024-02-12T03:04:08.077Z,5.33
2024-02-12T03:04:54.150Z,5.36
2024-02-12T03:05:32.676Z,5.35
2024-02-12T03:06:14.941Z,5.34
2024-02-12T03:06:51.511Z,5.34
2024-02-12T03:07:38.050Z,5.35
2024-02-12T03:08:19.669Z,5.33
2024-02-12T03:09:05.430Z,5.33
2024-02-12T03:09:46.959Z,5.31
2024-02-12T03:10:38.680Z,5.30
2024-02-12T03:11:16.162Z,5.28
2024-02-12T03:12:01.165Z,5.29
2024-02-12T03:12:44.989Z,5.33
2024-02-12T03:13:32.048Z,5.28
2024-02-12T03:14:22.554Z,5.29
2024-02-12T03:15:10.997Z,5.25
2024-02-12T03:16:10.278Z,5.26
2024-02-12T03:17:02.209Z,5.26
2024-02-12T03:18:16.718Z,5.25
2024-02-12T03:19:13.209Z,5.23
2024-02-12T03:19:57.716Z,5.28
2024-02-12T03:20:44.922Z,5.25
2024-02-12T03:21:35.539Z,5.24
2024-02-12T03:22:15.490Z,5.27
2024-02-12T03:22:57.960Z,5.26
2024-02-12T03:23:33.904Z,5.26
2024-02-12T03:24:15.101Z,5.27
2024-02-12T03:25:19.814Z,5.26
2024-02-12T03:26:07.097Z,5.24
2024-02-12T03:26:58.010Z,5.23
2024-02-12T03:27:36.436Z,5.21
2024-02-12T03:28:29.629Z,5.23
2024-02-12T03:29:37.700Z,5.22
2024-02-12T03:30:28.694Z,5.22
2024-02-12T03:32:14.835Z,5.26
2024-02-12T03:33:04.440Z,5.26
2024-02-12T03:33:56.609Z,5.27
2024-02-12T03:34:31.091Z,5.28
2024-02-12T03:35:16.230Z,5.30
2024-02-12T03:36:01.099Z,5.29
2024-02-12T03:37:03.236Z,5.30
2024-02-12T03:37:51.422Z,5.31
2024-02-12T03:38:56.887Z,5.31
2024-02-12T03:39:38.149Z,5.30
2024-02-12T03:40:29.948Z,5.31
2024-02-12T03:41:08.824Z,5.32
2024-02-12T03:41:44.095Z,5.33
2024-02-12T03:42:31.067Z,5.35
2024-02-12T03:43:29.291Z,5.35
2024-02-12T03:44:11.314Z,5.35
2024-02-12T03:44:55.334Z,5.35
2024-02-12T03:45:57.547Z,5.35
2024-02-12T03:46:53.677Z,5.35
2024-02-12T03:47:47.970Z,5.33
2024-02-12T03:48:44.170Z,5.34
2024-02-12T03:49:33.761Z,5.32
2024-02-12T03:50:42.766Z,5.32
2024-02-12T03:51:44.201Z,5.30
2024-02-12T03:52:57.949Z,5.29
2024-02-12T03:53:48.872Z,5.27
2024-02-12T03:54:48.280Z,5.27
2024-02-12T03:56:01.441Z,5.26
2024-02-12T03:56:51.500Z,5.25
2024-02-12T03:58:03.070Z,5.23
2024-02-12T03:59:02.384Z,5.22
2024-02-12T04:00:01.381Z,5.21
2024-02-12T04:01:56.017Z,5.19
2024-02-12T04:02:51.713Z,5.17
2024-02-12T04:03:34.939Z,5.14
2024-02-12T04:04:28.294Z,5.14
2024-02-12T04:05:16.203Z,5.14
2024-02-12T04:06:17.004Z,5.14
2024-02-12T04:06:56.210Z,5.13
2024-02-12T04:07:39.647Z,5.16
2024-02-12T04:08:18.259Z,5.14
2024-02-12T04:08:58.516Z,5.17
2024-02-12T04:09:48.964Z,5.18
2024-02-12T04:10:36.231Z,5.19
2024-02-12T04:11:20.756Z,5.18
2024-02-12T04:12:28.088Z,5.18
2024-02-12T04:13:16.829Z,5.16
2024-02-12T04:14:30.934Z,5.19
2024-02-12T04:16:10.790Z,5.18
2024-02-12T04:18:05.214Z,5.18
2024-02-12T04:18:53.199Z,5.19
2024-02-12T04:19:29.056Z,5.19
2024-02-12T04:20:22.269Z,5.21
2024-02-12T04:20:55.903Z,5.19
2024-02-12T04:21:45.198Z,5.23
2024-02-12T04:22:31.055Z,5.22
2024-02-12T04:23:18.654Z,5.22
2024-02-12T04:23:56.790Z,5.21
2024-02-12T04:24:40.757Z,5.23
2024-02-12T04:25:27.782Z,5.22
2024-02-12T04:26:08.209Z,5.23
2024-02-12T04:26:44.391Z,5.19
2024-02-12T04:27:45.675Z,5.20
2024-02-12T04:28:26.692Z,5.20
2024-02-12T04:29:15.151Z,5.21
2024-02-12T04:30:01.806Z,5.22
2024-02-12T04:30:46.326Z,5.21
2024-02-12T04:31:31.131Z,5.23
2024-02-12T04:32:23.976Z,5.24
2024-02-12T04:33:05.434Z,5.26
2024-02-12T04:33:49.776Z,5.28
2024-02-12T04:34:43.549Z,5.28
2024-02-12T04:35:24.459Z,5.31
2024-02-12T04:36:07.874Z,5.30
2024-02-12T04:36:59.364Z,5.31
2024-02-12T04:37:54.968Z,5.33
2024-02-12T04:38:56.618Z,5.31
2024-02-12T04:39:43.986Z,5.31
2024-02-12T04:40:22.320Z,5.32
2024-02-12T04:41:21.208Z,5.33
2024-02-12T04:42:01.062Z,5.30
2024-02-12T04:42:39.010Z,5.27
2024-02-12T04:43:26.817Z,5.29
2024-02-12T04:44:16.882Z,5.29
2024-02-12T04:45:06.718Z,5.29
2024-02-12T04:45:41.942Z,5.30
2024-02-12T04:46:17.515Z,5.32
2024-02-12T04:47:07.252Z,5.33
2024-02-12T04:49:02.412Z,5.30
2024-02-12T04:49:46.315Z,5.32
2024-02-12T04:50:34.184Z,5.35
2024-02-12T04:51:06.829Z,5.39
2024-02-12T04:51:57.428Z,5.36
2024-02-12T04:53:02.065Z,5.35
2024-02-12T04:54:24.993Z,5.30
2024-02-12T04:55:14.831Z,5.32
2024-02-12T04:55:55.960Z,5.33
2024-02-12T04:56:31.705Z,5.34
2024-02-12T04:57:22.030Z,5.37
2024-02-12T04:58:02.641Z,5.37
2024-02-12T04:58:37.360Z,5.39
2024-02-12T04:59:33.569Z,5.39
2024-02-12T05:00:25.332Z,5.41
2024-02-12T05:01:10.286Z,5.43
2024-02-12T05:02:02.029Z,5.45
2024-02-12T05:02:47.024Z,5.44
2024-02-12T05:03:38.007Z,5.45
2024-02-12T05:04:21.726Z,5.43
2024-02-12T05:05:06.831Z,5.44
2024-02-12T05:05:53.387Z,5.43
2024-02-12T05:06:40.037Z,5.47
2024-02-12T05:07:27.763Z,5.46
2024-02-12T05:08:10.168Z,5.48
2024-02-12T05:08:48.959Z,5.48
2024-02-12T05:09:42.238Z,5.48
2024-02-12T05:10:23.173Z,5.48
2024-02-12T05:11:07.054Z,5.47
2024-02-12T05:11:48.039Z,5.47
2024-02-12T05:12:35.609Z,5.48
2024-02-12T05:13:40.117Z,5.47
2024-02-12T05:14:33.207Z,5.46
2024-02-12T05:15:20.912Z,5.46
2024-02-12T05:16:17.906Z,5.49
2024-02-12T05:16:54.815Z,5.50
2024-02-12T05:17:46.288Z,5.50
2024-02-12T05:18:50.654Z,5.51
2024-02-12T05:20:51.645Z,5.55
2024-02-12T05:21:51.275Z,5.51
2024-02-12T05:24:43.506Z,5.51
2024-02-12T05:25:21.328Z,5.53
2024-02-12T05:26:06.225Z,5.54
2024-02-12T05:27:11.938Z,5.55
2024-02-12T05:27:58.572Z,5.55
2024-02-12T05:29:01.249Z,5.57
2024-02-12T05:29:57.766Z,5.59
2024-02-12T05:30:50.560Z,5.61
2024-02-12T05:31:44.274Z,5.63
2024-02-12T05:32:40.917Z,5.64
2024-02-12T05:33:19.139Z,5.65
2024-02-12T05:34:08.487Z,5.66
2024-02-12T05:34:57.016Z,5.68
2024-02-12T05:35:44.888Z,5.68
2024-02-12T05:36:41.090Z,5.68
2024-02-12T05:37:33.887Z,5.67
2024-02-12T05:38:18.224Z,5.74
2024-02-12T05:38:51.836Z,5.69
2024-02-12T05:39:29.637Z,5.73
2024-02-12T05:40:11.011Z,5.75
2024-02-12T05:41:01.099Z,5.76
2024-02-12T05:41:42.006Z,5.75
2024-02-12T05:42:34.724Z,5.76
2024-02-12T05:43:10.164Z,5.75
2024-02-12T05:44:15.062Z,5.75
2024-02-12T05:45:08.277Z,5.81
2024-02-12T05:46:07.746Z,5.78
2024-02-12T05:46:55.107Z,5.68
2024-02-12T05:47:57.256Z,5.68
2024-02-12T05:48:40.766Z,5.68
2024-02-12T05:49:36.009Z,5.66
2024-02-12T05:50:23.631Z,5.66
2024-02-12T05:51:24.656Z,5.67
2024-02-12T05:52:22.847Z,5.67
2024-02-12T05:53:24.801Z,5.68
2024-02-12T05:54:05.904Z,5.66
2024-02-12T05:54:46.574Z,5.69
2024-02-12T05:55:28.058Z,5.69
2024-02-12T05:56:21.563Z,5.71
2024-02-12T05:57:31.927Z,5.70
2024-02-12T05:58:48.932Z,5.73
2024-02-12T05:59:41.754Z,5.71
2024-02-12T06:00:28.079Z,5.71
2024-02-12T06:01:03.178Z,5.73
2024-02-12T06:01:53.940Z,5.75
2024-02-12T06:02:40.648Z,5.76
2024-02-12T06:03:31.008Z,5.74
2024-02-12T06:04:30.375Z,5.76
2024-02-12T06:05:23.135Z,5.77
2024-02-12T06:06:16.989Z,5.77
2024-02-12T06:07:19.610Z,5.78
2024-02-12T06:08:06.924Z,5.78
2024-02-12T06:08:51.495Z,5.82
2024-02-12T06:09:50.212Z,5.83
2024-02-12T06:10:48.245Z,5.82
2024-02-12T06:11:35.954Z,5.83
2024-02-12T06:12:23.082Z,5.83
2024-02-12T06:13:07.634Z,5.83
2024-02-12T06:14:15.907Z,5.81
2024-02-12T06:14:56.568Z,5.80
2024-02-12T06:15:55.508Z,5.79
2024-02-12T06:16:30.734Z,5.79
2024-02-12T06:17:12.340Z,5.83
2024-02-12T06:18:05.221Z,5.82
2024-02-12T06:19:11.169Z,5.85
2024-02-12T06:20:16.243Z,5.89
2024-02-12T06:20:57.365Z,5.89
2024-02-12T06:21:53.956Z,5.92
2024-02-12T06:22:50.718Z,5.95
2024-02-12T06:23:41.447Z,6.01
2024-02-12T06:25:52.768Z,6.00
2024-02-12T06:26:44.314Z,6.01
2024-02-12T06:27:27.897Z,6.04
2024-02-12T06:28:19.910Z,6.06
2024-02-12T06:29:01.220Z,6.09
2024-02-12T06:29:51.103Z,6.08
2024-02-12T06:30:34.787Z,6.07
2024-02-12T06:31:39.164Z,6.10
2024-02-12T06:32:23.562Z,6.06
2024-02-12T06:34:15.237Z,6.07
2024-02-12T06:35:22.180Z,6.08
2024-02-12T06:35:58.133Z,6.08
2024-02-12T06:36:53.373Z,6.11
2024-02-12T06:38:16.700Z,6.11
2024-02-12T06:39:03.899Z,6.11
2024-02-12T06:39:42.447Z,6.12
2024-02-12T06:40:37.105Z,6.15
2024-02-12T06:41:42.420Z,6.14
2024-02-12T06:42:18.069Z,6.14
2024-02-12T06:43:18.914Z,6.15
2024-02-12T06:44:21.207Z,6.21
2024-02-12T06:45:16.099Z,6.17
2024-02-12T06:46:06.265Z,6.14
2024-02-12T06:46:59.310Z,6.16
2024-02-12T06:47:48.708Z,6.18
2024-02-12T06:48:32.973Z,6.20
2024-02-12T06:50:48.553Z,6.20
2024-02-12T06:51:32.322Z,6.22
2024-02-12T06:52:43.075Z,6.23
2024-02-12T06:53:22.978Z,6.24
2024-02-12T06:54:09.671Z,6.24
2024-02-12T06:54:50.776Z,6.22
2024-02-12T06:57:04.527Z,6.18
2024-02-12T06:58:37.599Z,6.15
2024-02-12T07:00:40.355Z,6.16
2024-02-12T07:02:22.163Z,6.19
2024-02-12T07:03:09.680Z,6.21
2024-02-12T07:04:21.682Z,6.18
2024-02-12T07:05:21.553Z,6.15
2024-02-12T07:05:56.734Z,6.14
2024-02-12T07:06:35.250Z,6.14
2024-02-12T07:07:16.166Z,6.14
2024-02-12T07:08:00.379Z,6.16
2024-02-12T07:08:41.898Z,6.20
2024-02-12T07:09:46.027Z,6.14
2024-02-12T07:10:29.896Z,6.14
2024-02-12T07:11:58.877Z,6.16
2024-02-12T07:12:34.415Z,6.18
2024-02-12T07:13:19.280Z,6.22
2024-02-12T07:14:06.284Z,6.22
2024-02-12T07:15:02.090Z,6.24
2024-02-12T07:15:49.225Z,6.27
2024-02-12T07:16:38.516Z,6.28
2024-02-12T07:17:28.466Z,6.28
2024-02-12T07:18:18.976Z,6.28
2024-02-12T07:19:17.506Z,6.29
2024-02-12T07:20:19.960Z,6.29
2024-02-12T07:21:00.673Z,6.32
2024-02-12T07:22:14.198Z,6.34
2024-02-12T07:22:55.126Z,6.34
2024-02-12T07:25:01.907Z,6.40
2024-02-12T07:25:48.764Z,6.40
2024-02-12T07:27:52.011Z,6.45
2024-02-12T07:28:38.827Z,6.42
2024-02-12T07:30:49.751Z,6.42
2024-02-12T07:31:37.773Z,6.45
2024-02-12T07:32:19.028Z,6.48
2024-02-12T07:33:09.652Z,6.47
2024-02-12T07:34:04.619Z,6.47
2024-02-12T07:34:59.951Z,6.48
2024-02-12T07:35:56.890Z,6.50
2024-02-12T07:37:17.515Z,6.51
2024-02-12T07:38:05.794Z,6.52
2024-02-12T07:38:55.754Z,6.54
2024-02-12T07:40:55.349Z,6.53
2024-02-12T07:41:48.802Z,6.54
2024-02-12T07:44:35.044Z,6.60
2024-02-12T07:45:24.864Z,6.57
2024-02-12T07:46:13.864Z,6.57
2024-02-12T07:47:11.164Z,6.59
2024-02-12T07:48:12.694Z,6.61
2024-02-12T07:49:09.463Z,6.60
2024-02-12T07:50:12.114Z,6.61
2024-02-12T07:50:56.644Z,6.56
2024-02-12T07:51:45.992Z,6.57
2024-02-12T07:52:39.686Z,6.59
2024-02-12T07:53:14.733Z,6.57
2024-02-12T07:54:17.007Z,6.58
2024-02-12T07:54:54.666Z,6.60
2024-02-12T07:57:20.590Z,6.65
2024-02-12T07:59:12.132Z,6.61
2024-02-12T07:59:50.375Z,6.62
2024-02-12T08:01:15.171Z,6.65
2024-02-12T08:02:23.160Z,6.67
2024-02-12T08:03:01.819Z,6.63
2024-02-12T08:03:45.754Z,6.64
2024-02-12T08:04:43.656Z,6.62
2024-02-12T08:05:38.762Z,6.63
2024-02-12T08:06:11.250Z,6.63
2024-02-12T08:06:58.581Z,6.69
2024-02-12T08:07:41.874Z,6.69
2024-02-12T08:08:37.581Z,6.69
2024-02-12T08:09:22.085Z,6.70
2024-02-12T08:10:09.209Z,6.71
2024-02-12T08:11:11.359Z,6.71
2024-02-12T08:12:03.325Z,6.79
2024-02-12T08:13:03.072Z,6.74
2024-02-12T08:14:02.287Z,6.75
2024-02-12T08:15:04.650Z,6.78
2024-02-12T08:15:43.506Z,6.81
2024-02-12T08:16:18.789Z,6.84
2024-02-12T08:16:57.207Z,6.86
2024-02-12T08:18:02.241Z,6.89
2024-02-12T08:18:43.425Z,6.90
2024-02-12T08:19:24.994Z,6.89
2024-02-12T08:20:24.802Z,6.90
2024-02-12T08:21:21.467Z,6.88
2024-02-12T08:23:27.040Z,6.89
2024-02-12T08:24:25.483Z,6.90
2024-02-12T08:25:29.004Z,6.91
2024-02-12T08:26:16.117Z,6.93
2024-02-12T08:26:48.530Z,6.94
2024-02-12T08:27:29.187Z,6.94
2024-02-12T08:28:19.412Z,6.93
2024-02-12T08:28:54.733Z,6.94
2024-02-12T08:30:47.501Z,6.94
2024-02-12T08:31:36.777Z,6.97
2024-02-12T08:32:20.956Z,6.97
2024-02-12T08:33:28.879Z,6.98
2024-02-12T08:34:23.155Z,6.98
2024-02-12T08:35:15.900Z,6.98
2024-02-12T08:35:56.755Z,6.98
2024-02-12T08:36:54.372Z,7.01
2024-02-12T08:37:57.524Z,7.01
2024-02-12T08:38:50.281Z,7.01
2024-02-12T08:39:31.541Z,7.02
2024-02-12T08:40:12.442Z,7.04
2024-02-12T08:41:04.802Z,7.06
2024-02-12T08:41:54.840Z,7.08
2024-02-12T08:42:38.654Z,7.10
2024-02-12T08:43:17.014Z,7.12
2024-02-12T08:44:00.990Z,7.14
2024-02-12T08:45:01.956Z,7.15
2024-02-12T08:46:01.088Z,7.15
2024-02-12T08:47:08.025Z,7.17
2024-02-12T08:47:58.198Z,7.18
2024-02-12T08:48:39.415Z,7.18
2024-02-12T08:49:30.539Z,7.19
2024-02-12T08:50:12.819Z,7.19
2024-02-12T08:51:03.324Z,7.20
2024-02-12T08:51:44.321Z,7.22
2024-02-12T08:52:28.619Z,7.23
2024-02-12T08:53:07.170Z,7.22
2024-02-12T08:53:45.730Z,7.23
2024-02-12T08:54:39.178Z,7.23
2024-02-12T08:55:39.470Z,7.23
2024-02-12T08:56:15.865Z,7.23
2024-02-12T08:56:59.588Z,7.25
2024-02-12T08:57:45.427Z,7.25
2024-02-12T08:58:45.919Z,7.24
2024-02-12T08:59:39.904Z,7.25
2024-02-12T09:00:48.732Z,7.24
2024-02-12T09:01:26.600Z,7.24
2024-02-12T09:03:36.134Z,7.26
2024-02-12T09:04:16.248Z,7.27
2024-02-12T09:05:04.119Z,7.30
2024-02-12T09:06:00.077Z,7.33
2024-02-12T09:07:22.841Z,7.35
2024-02-12T09:08:13.060Z,7.34
2024-02-12T09:08:50.669Z,7.36
2024-02-12T09:10:03.988Z,7.35
2024-02-12T09:11:03.645Z,7.37
2024-02-12T09:12:04.612Z,7.40
2024-02-12T09:12:53.599Z,7.43
2024-02-12T09:13:38.172Z,7.45
2024-02-12T09:14:30.196Z,7.48
2024-02-12T09:15:15.851Z,7.51
2024-02-12T09:15:57.809Z,7.54
2024-02-12T09:16:53.521Z,7.56
2024-02-12T09:17:59.835Z,7.56
2024-02-12T09:20:53.640Z,7.54
2024-02-12T09:21:34.564Z,7.55
2024-02-12T09:22:13.781Z,7.57
2024-02-12T09:22:58.896Z,7.59
2024-02-12T09:23:49.243Z,7.60
2024-02-12T09:24:51.263Z,7.60
2024-02-12T09:25:32.165Z,7.58
2024-02-12T09:26:22.101Z,7.60
2024-02-12T09:27:05.896Z,7.59
2024-02-12T09:27:56.647Z,7.62
2024-02-12T09:28:49.392Z,7.62
2024-02-12T09:30:12.670Z,7.67
2024-02-12T09:31:02.661Z,7.69
2024-02-12T09:31:46.786Z,7.71
2024-02-12T09:32:36.710Z,7.74
2024-02-12T09:33:26.161Z,7.74
2024-02-12T09:34:16.273Z,7.75
2024-02-12T09:34:59.046Z,7.76
2024-02-12T09:35:36.841Z,7.78
2024-02-12T09:36:16.839Z,7.81
2024-02-12T09:37:04.764Z,7.82
2024-02-12T09:37:47.494Z,7.81
2024-02-12T09:39:10.612Z,7.87
2024-02-12T09:40:19.258Z,7.88
2024-02-12T09:41:12.264Z,7.92
2024-02-12T09:43:04.214Z,7.95
2024-02-12T09:44:19.205Z,7.96
2024-02-12T09:45:20.312Z,7.98
2024-02-12T09:46:28.826Z,7.98
2024-02-12T09:47:37.876Z,7.95
2024-02-12T09:48:29.551Z,7.94
2024-02-12T09:49:01.864Z,7.95
2024-02-12T09:51:21.359Z,7.94
2024-02-12T09:52:31.087Z,7.91
2024-02-12T09:54:24.978Z,7.91
2024-02-12T09:55:22.863Z,7.90
2024-02-12T09:56:11.697Z,7.92
2024-02-12T09:57:01.958Z,7.91
2024-02-12T09:58:10.207Z,7.91
2024-02-12T09:59:15.076Z,7.92
2024-02-12T09:59:48.316Z,7.94
2024-02-12T10:00:39.933Z,7.96
2024-02-12T10:01:44.746Z,7.98
2024-02-12T10:02:26.009Z,7.99
2024-02-12T10:03:22.125Z,7.99
2024-02-12T10:04:03.894Z,7.98
2024-02-12T10:05:13.114Z,7.94
2024-02-12T10:06:00.077Z,7.92
2024-02-12T10:07:51.526Z,7.90
2024-02-12T10:09:01.792Z,7.86
2024-02-12T10:09:42.961Z,7.81
2024-02-12T10:10:16.445Z,7.83
2024-02-12T10:12:16.031Z,7.81
2024-02-12T10:13:08.838Z,7.76
2024-02-12T10:14:09.278Z,7.74
2024-02-12T10:14:53.672Z,7.75
2024-02-12T10:15:55.874Z,7.73
2024-02-12T10:16:45.952Z,7.72
2024-02-12T10:17:33.004Z,7.72
2024-02-12T10:18:48.205Z,7.71
2024-02-12T10:19:38.029Z,7.69
2024-02-12T10:20:15.096Z,7.72
2024-02-12T10:21:24.320Z,7.72
2024-02-12T10:22:04.751Z,7.72
2024-02-12T10:22:46.577Z,7.74
2024-02-12T10:23:43.926Z,7.69
2024-02-12T10:24:28.712Z,7.69
2024-02-12T10:25:20.392Z,7.70
2024-02-12T10:26:10.007Z,7.71
2024-02-12T10:27:13.344Z,7.70
2024-02-12T10:27:51.135Z,7.68
2024-02-12T10:29:02.962Z,7.64
2024-02-12T10:29:44.700Z,7.65
2024-02-12T10:30:35.102Z,7.65
2024-02-12T10:32:41.550Z,7.68
2024-02-12T10:33:59.111Z,7.70
2024-02-12T10:35:13.004Z,7.71
2024-02-12T10:35:55.218Z,7.79
2024-02-12T10:37:59.947Z,7.79
2024-02-12T10:38:47.664Z,7.80
2024-02-12T10:39:46.885Z,7.83
2024-02-12T10:40:46.102Z,7.84
2024-02-12T10:41:53.527Z,7.81
2024-02-12T10:44:10.082Z,7.72
2024-02-12T10:45:03.689Z,7.71
2024-02-12T10:45:49.257Z,7.71
2024-02-12T10:46:36.446Z,7.74
2024-02-12T10:47:22.985Z,7.74
2024-02-12T10:48:51.349Z,7.70
2024-02-12T10:49:33.489Z,7.68
2024-02-12T10:50:19.809Z,7.68
2024-02-12T10:51:33.958Z,7.64
2024-02-12T10:52:25.717Z,7.65
2024-02-12T10:52:58.853Z,7.64
2024-02-12T10:53:50.748Z,7.69
2024-02-12T10:54:38.479Z,7.70
2024-02-12T10:55:20.208Z,7.74
2024-02-12T10:56:47.811Z,7.75
2024-02-12T10:57:46.927Z,7.77
2024-02-12T10:58:31.708Z,7.78
2024-02-12T10:59:13.035Z,7.80
2024-02-12T11:00:02.739Z,7.81
2024-02-12T11:01:06.906Z,7.90
2024-02-12T11:01:53.353Z,7.86
2024-02-12T11:02:43.396Z,7.88
2024-02-12T11:03:52.654Z,7.87
2024-02-12T11:04:37.186Z,7.87
2024-02-12T11:05:39.130Z,7.91
2024-02-12T11:06:18.962Z,7.93
2024-02-12T11:08:35.116Z,7.87
2024-02-12T11:09:37.112Z,7.82
2024-02-12T11:10:34.718Z,7.79
2024-02-12T11:11:32.516Z,7.79
2024-02-12T11:12:34.817Z,7.80
2024-02-12T11:13:46.206Z,7.83
2024-02-12T11:14:57.050Z,7.84
2024-02-12T11:16:03.574Z,7.84
2024-02-12T11:16:51.229Z,7.86
2024-02-12T11:17:33.645Z,7.90
2024-02-12T11:18:26.799Z,7.96
2024-02-12T11:19:12.036Z,8.01
2024-02-12T11:20:00.312Z,8.07
2024-02-12T11:20:59.901Z,8.12
2024-02-12T11:21:45.560Z,8.17
2024-02-12T11:23:35.823Z,8.17
2024-02-12T11:24:35.117Z,8.16
2024-02-12T11:25:23.478Z,8.17
2024-02-12T11:26:26.190Z,8.12
2024-02-12T11:27:22.217Z,8.07
2024-02-12T11:28:12.029Z,8.02
2024-02-12T11:29:11.928Z,8.02
2024-02-12T11:29:59.374Z,8.00
2024-02-12T11:30:48.307Z,8.01
2024-02-12T11:31:49.174Z,8.03
2024-02-12T11:32:36.349Z,8.04
2024-02-12T11:33:32.698Z,8.05
2024-02-12T11:35:36.922Z,8.01
2024-02-12T11:36:32.045Z,8.03
2024-02-12T11:38:21.198Z,8.01
2024-02-12T11:38:56.257Z,8.00
2024-02-12T11:39:34.539Z,8.02
2024-02-12T11:40:26.962Z,8.02
2024-02-12T11:41:03.036Z,8.03
2024-02-12T11:41:42.296Z,8.06
2024-02-12T11:42:32.530Z,8.07
2024-02-12T11:43:11.235Z,8.08
2024-02-12T11:44:04.698Z,8.09
2024-02-12T11:44:47.585Z,8.10
2024-02-12T11:45:44.273Z,8.13
2024-02-12T11:46:31.763Z,8.16
2024-02-12T11:47:10.909Z,8.17
2024-02-12T11:48:02.615Z,8.17
2024-02-12T11:49:05.190Z,8.15
2024-02-12T11:49:50.019Z,8.16
2024-02-12T11:50:31.932Z,8.17
2024-02-12T11:51:50.836Z,8.18
2024-02-12T11:52:46.942Z,8.18
2024-02-12T11:53:19.380Z,8.15
2024-02-12T11:54:08.956Z,8.17
2024-02-12T11:55:10.791Z,8.18
2024-02-12T11:55:49.283Z,8.17
2024-02-12T11:56:42.657Z,8.18
2024-02-12T11:57:56.726Z,8.20
2024-02-12T11:58:29.727Z,8.18
2024-02-12T11:59:24.614Z,8.19
2024-02-12T12:00:02.880Z,8.21
2024-02-12T12:01:19.686Z,8.22
2024-02-12T12:03:02.280Z,8.23
2024-02-12T12:03:40.256Z,8.25
2024-02-12T12:04:20.677Z,8.27